createdAt,value
2023-01-13T00:01:20.389Z,2.07
2023-01-13T00:03:47.669Z,2.30
2023-01-13T00:06:20.633Z,2.50
2023-01-13T00:08:51.579Z,2.30
2023-01-13T00:11:19.463Z,1.97
2023-01-13T00:13:49.103Z,2.87
2023-01-13T00:16:18.231Z,2.33
2023-01-13T00:18:48.529Z,2.30
2023-01-13T00:21:18.325Z,1.97
2023-01-13T00:23:46.284Z,2.20
2023-01-13T00:26:16.504Z,1.83
2023-01-13T00:28:43.730Z,1.47
2023-01-13T00:31:21.379Z,1.40
2023-01-13T00:33:52.067Z,1.47
2023-01-13T00:36:20.843Z,1.40
2023-01-13T00:38:48.663Z,1.37
2023-01-13T00:41:18.569Z,1.30
2023-01-13T00:43:46.298Z,1.20
2023-01-13T00:46:19.037Z,1.67
2023-01-13T00:48:47.341Z,1.03
2023-01-13T00:51:17.450Z,1.30
2023-01-13T00:53:46.702Z,1.00
2023-01-13T00:56:24.428Z,0.80
2023-01-13T00:58:59.060Z,1.10
2023-01-13T01:01:26.589Z,1.13
2023-01-13T01:03:54.858Z,0.90
2023-01-13T01:06:24.542Z,0.70
2023-01-13T01:08:52.924Z,1.10
2023-01-13T01:11:23.139Z,1.10
2023-01-13T01:13:52.793Z,1.50
2023-01-13T01:16:22.380Z,0.90
2023-01-13T01:18:50.870Z,1.00
2023-01-13T01:21:19.786Z,1.43
2023-01-13T01:23:47.146Z,1.37
2023-01-13T01:26:21.902Z,1.30
2023-01-13T01:28:49.608Z,1.40
2023-01-13T01:31:25.702Z,1.47
2023-01-13T01:33:53.809Z,1.37
2023-01-13T01:36:22.155Z,1.67
2023-01-13T01:38:50.339Z,1.70
2023-01-13T01:41:20.752Z,1.37
2023-01-13T01:44:22.727Z,1.60
2023-01-13T01:46:49.644Z,1.50
2023-01-13T01:49:48.575Z,1.80
2023-01-13T01:52:22.442Z,1.83
2023-01-13T01:54:57.917Z,1.57
2023-01-13T01:57:33.300Z,1.77
2023-01-13T02:00:01.458Z,1.63
2023-01-13T02:02:30.630Z,1.67
2023-01-13T02:04:58.591Z,2.17
2023-01-13T02:07:28.383Z,2.23
2023-01-13T02:09:58.017Z,2.37
2023-01-13T02:12:30.149Z,2.13
2023-01-13T02:15:22.598Z,2.33
2023-01-13T02:18:19.847Z,2.37
2023-01-13T02:20:55.649Z,2.60
2023-01-13T02:24:05.077Z,2.60
2023-01-13T02:27:09.948Z,2.67
2023-01-13T02:30:23.832Z,2.13
2023-01-13T02:33:08.109Z,2.37
2023-01-13T02:35:34.995Z,2.10
2023-01-13T02:38:05.615Z,2.90
2023-01-13T02:41:21.439Z,2.67
2023-01-13T02:44:10.752Z,2.43
2023-01-13T02:46:55.583Z,2.30
2023-01-13T02:49:32.372Z,3.33
2023-01-13T02:52:06.707Z,3.23
2023-01-13T02:54:36.614Z,2.50
2023-01-13T02:57:06.356Z,2.77
2023-01-13T02:59:34.617Z,2.90
2023-01-13T03:02:03.555Z,2.60
2023-01-13T03:04:53.613Z,2.70
2023-01-13T03:07:57.774Z,3.27
2023-01-13T03:10:36.524Z,3.40
2023-01-13T03:13:38.373Z,2.70
2023-01-13T03:16:07.979Z,3.03
2023-01-13T03:18:56.274Z,3.40
2023-01-13T03:21:48.935Z,3.23
2023-01-13T03:24:30.661Z,3.17
2023-01-13T03:27:18.182Z,3.40
2023-01-13T03:30:14.700Z,3.40
2023-01-13T03:32:48.115Z,2.90
2023-01-13T03:35:30.928Z,3.10
2023-01-13T03:38:09.308Z,3.00
2023-01-13T03:40:43.348Z,3.00
2023-01-13T03:43:34.143Z,3.37
2023-01-13T03:46:08.940Z,3.00
2023-01-13T03:48:41.070Z,2.63
2023-01-13T03:51:14.352Z,3.47
2023-01-13T03:53:49.561Z,3.17
2023-01-13T03:56:24.239Z,3.60
2023-01-13T03:58:54.151Z,3.67
2023-01-13T04:01:58.752Z,3.50
2023-01-13T04:04:49.873Z,3.93
2023-01-13T04:07:30.912Z,3.63
2023-01-13T04:10:02.366Z,4.63
2023-01-13T04:12:51.890Z,4.13
2023-01-13T04:15:27.632Z,4.67
2023-01-13T04:17:55.163Z,4.30
2023-01-13T04:20:22.060Z,3.90
2023-01-13T04:22:48.936Z,4.07
2023-01-13T04:25:15.724Z,4.30
2023-01-13T04:27:42.623Z,4.50
2023-01-13T04:30:10.364Z,4.43
2023-01-13T04:32:37.588Z,5.23
2023-01-13T04:35:04.835Z,4.80
2023-01-13T04:37:31.612Z,3.80
2023-01-13T04:39:58.797Z,4.07
2023-01-13T04:42:25.877Z,3.80
2023-01-13T04:44:52.664Z,4.07
2023-01-13T04:47:19.618Z,4.37
2023-01-13T04:49:46.625Z,4.30
2023-01-13T04:52:13.597Z,4.10
2023-01-13T04:54:40.456Z,4.30
2023-01-13T04:57:07.348Z,3.53
2023-01-13T04:59:34.723Z,4.27
2023-01-13T05:02:01.792Z,3.60
2023-01-13T05:04:28.922Z,3.90
2023-01-13T05:06:55.837Z,4.30
2023-01-13T05:09:22.879Z,3.77
2023-01-13T05:12:08.690Z,3.67
2023-01-13T05:14:54.349Z,4.23
2023-01-13T05:17:24.674Z,3.70
2023-01-13T05:19:51.610Z,4.03
2023-01-13T05:22:37.148Z,4.47
2023-01-13T05:25:22.449Z,4.00
2023-01-13T05:27:50.097Z,3.63
2023-01-13T05:30:17.867Z,3.77
2023-01-13T05:32:44.879Z,4.23
2023-01-13T05:35:12.088Z,3.90
2023-01-13T05:37:39.512Z,4.63
2023-01-13T05:40:25.953Z,3.30
2023-01-13T05:43:21.053Z,4.40
2023-01-13T05:45:50.834Z,3.97
2023-01-13T05:48:19.475Z,4.67
2023-01-13T05:50:49.605Z,4.07
2023-01-13T05:53:18.093Z,4.10
2023-01-13T05:55:45.937Z,3.83
2023-01-13T05:58:15.346Z,4.83
2023-01-13T06:00:42.729Z,4.10
2023-01-13T06:03:09.960Z,4.33
2023-01-13T06:05:37.406Z,4.67
2023-01-13T06:08:06.317Z,4.30
2023-01-13T06:10:34.332Z,4.20
2023-01-13T06:13:01.754Z,4.40
2023-01-13T06:15:28.915Z,5.10
2023-01-13T06:17:58.473Z,4.30
2023-01-13T06:20:25.727Z,4.27
2023-01-13T06:22:54.550Z,4.97
2023-01-13T06:25:40.168Z,3.83
2023-01-13T06:28:07.280Z,4.80
2023-01-13T06:30:43.061Z,4.77
2023-01-13T06:33:15.198Z,4.57
2023-01-13T06:35:49.765Z,4.53
2023-01-13T06:38:20.602Z,4.87
2023-01-13T06:40:48.020Z,5.00
2023-01-13T06:43:16.567Z,4.63
2023-01-13T06:45:50.755Z,3.80
2023-01-13T06:48:19.230Z,4.43
2023-01-13T06:50:46.345Z,4.90
2023-01-13T06:53:13.445Z,3.90
2023-01-13T06:55:40.833Z,4.33
2023-01-13T06:58:08.260Z,5.40
2023-01-13T07:00:38.112Z,4.67
2023-01-13T07:03:16.134Z,4.90
2023-01-13T07:05:44.764Z,4.67
2023-01-13T07:08:11.812Z,4.13
2023-01-13T07:10:39.202Z,4.87
2023-01-13T07:13:25.761Z,4.30
2023-01-13T07:15:57.529Z,5.20
2023-01-13T07:18:25.219Z,5.00
2023-01-13T07:20:56.704Z,4.67
2023-01-13T07:23:24.447Z,5.23
2023-01-13T07:25:51.345Z,5.23
2023-01-13T07:28:18.180Z,5.37
2023-01-13T07:30:45.530Z,5.33
2023-01-13T07:33:12.386Z,4.90
2023-01-13T07:35:42.082Z,5.40
2023-01-13T07:38:08.919Z,5.77
2023-01-13T07:40:35.801Z,5.30
2023-01-13T07:43:21.478Z,4.93
2023-01-13T07:45:48.432Z,4.20
2023-01-13T07:48:15.426Z,5.33
2023-01-13T07:50:44.155Z,5.23
2023-01-13T07:53:11.054Z,4.60
2023-01-13T07:55:42.286Z,4.63
2023-01-13T07:58:10.283Z,4.70
2023-01-13T08:00:38.517Z,5.33
2023-01-13T08:03:05.602Z,4.37
2023-01-13T08:05:32.429Z,4.90
2023-01-13T08:07:59.234Z,3.57
2023-01-13T08:10:26.048Z,4.70
2023-01-13T08:13:11.604Z,5.17
2023-01-13T08:15:38.528Z,4.37
2023-01-13T08:18:05.558Z,5.30
2023-01-13T08:20:32.370Z,5.50
2023-01-13T08:23:00.519Z,5.27
2023-01-13T08:25:28.939Z,4.27
2023-01-13T08:27:56.201Z,4.80
2023-01-13T08:30:23.444Z,4.60
2023-01-13T08:32:50.959Z,4.30
2023-01-13T08:35:18.349Z,4.97
2023-01-13T08:37:46.570Z,4.23
2023-01-13T08:40:14.956Z,4.57
2023-01-13T08:42:42.008Z,4.37
2023-01-13T08:45:10.761Z,4.23
2023-01-13T08:47:37.719Z,4.10
2023-01-13T08:50:05.659Z,3.63
2023-01-13T08:52:32.667Z,4.20
2023-01-13T08:54:59.700Z,4.77
2023-01-13T08:57:26.716Z,3.93
2023-01-13T08:59:53.805Z,3.90
2023-01-13T09:02:22.721Z,4.40
2023-01-13T09:04:50.827Z,3.90
2023-01-13T09:07:18.883Z,3.60
2023-01-13T09:09:46.165Z,3.87
2023-01-13T09:12:50.176Z,4.43
2023-01-13T09:15:21.807Z,4.50
2023-01-13T09:17:48.775Z,3.30
2023-01-13T09:20:16.124Z,4.00
2023-01-13T09:22:43.264Z,3.50
2023-01-13T09:25:10.820Z,4.00
2023-01-13T09:27:37.791Z,3.20
2023-01-13T09:30:05.969Z,3.53
2023-01-13T09:32:33.318Z,3.03
2023-01-13T09:35:00.351Z,3.40
2023-01-13T09:37:36.099Z,3.57
2023-01-13T09:40:17.342Z,2.80
2023-01-13T09:43:09.238Z,3.70
2023-01-13T09:45:50.498Z,3.10
2023-01-13T09:48:52.482Z,3.43
2023-01-13T09:51:30.765Z,3.13
2023-01-13T09:54:07.486Z,3.23
2023-01-13T09:56:34.358Z,3.80
2023-01-13T09:59:01.639Z,2.70
2023-01-13T10:01:37.692Z,3.00
2023-01-13T10:04:10.593Z,3.03
2023-01-13T10:06:39.845Z,3.40
2023-01-13T10:09:06.665Z,2.67
2023-01-13T10:11:57.939Z,3.43
2023-01-13T10:14:30.299Z,2.53
2023-01-13T10:17:06.824Z,2.93
2023-01-13T10:19:44.119Z,2.90
2023-01-13T10:22:35.609Z,2.50
2023-01-13T10:25:23.856Z,2.93
2023-01-13T10:27:55.766Z,2.67
2023-01-13T10:30:27.801Z,3.27
2023-01-13T10:32:58.175Z,2.60
2023-01-13T10:35:55.822Z,2.50
2023-01-13T10:38:37.880Z,2.57
2023-01-13T10:41:20.196Z,3.00
2023-01-13T10:43:53.038Z,2.53
2023-01-13T10:46:20.944Z,2.53
2023-01-13T10:48:59.591Z,2.20
2023-01-13T10:51:28.108Z,2.87
2023-01-13T10:54:13.339Z,2.77
2023-01-13T10:56:45.253Z,2.47
2023-01-13T10:59:22.496Z,3.03
2023-01-13T11:02:36.293Z,2.73
2023-01-13T11:05:21.379Z,2.50
2023-01-13T11:07:52.674Z,2.63
2023-01-13T11:10:27.999Z,2.30
2023-01-13T11:13:21.844Z,2.20
2023-01-13T11:16:16.787Z,2.13
2023-01-13T11:19:02.651Z,2.77
2023-01-13T11:21:37.738Z,2.40
2023-01-13T11:24:15.556Z,3.10
2023-01-13T11:26:59.295Z,3.10
2023-01-13T11:29:39.127Z,3.27
2023-01-13T11:32:18.619Z,3.63
2023-01-13T11:34:52.727Z,2.50
2023-01-13T11:37:28.740Z,2.90
2023-01-13T11:40:05.813Z,3.53
2023-01-13T11:42:40.430Z,2.70
2023-01-13T11:45:22.241Z,2.60
2023-01-13T11:47:52.807Z,2.30
2023-01-13T11:50:26.226Z,2.10
2023-01-13T11:53:17.848Z,2.63
2023-01-13T11:55:57.412Z,3.10
2023-01-13T11:58:50.573Z,2.70
2023-01-13T12:02:08.102Z,2.77
2023-01-13T12:04:49.648Z,2.50
2023-01-13T12:07:39.412Z,2.90
2023-01-13T12:10:16.262Z,3.20
2023-01-13T12:13:01.533Z,3.10
2023-01-13T12:15:37.116Z,2.93
2023-01-13T12:18:30.702Z,3.87
2023-01-13T12:21:12.965Z,3.03
2023-01-13T12:24:21.611Z,3.43
2023-01-13T12:30:00.447Z,2.73
2023-01-13T12:32:36.716Z,3.30
2023-01-13T12:35:35.104Z,3.03
2023-01-13T12:38:13.995Z,2.80
2023-01-13T12:40:48.200Z,3.30
2023-01-13T12:43:36.042Z,2.77
2023-01-13T12:46:23.607Z,2.83
2023-01-13T12:48:55.443Z,3.13
2023-01-13T12:51:27.195Z,3.00
2023-01-13T12:53:55.213Z,3.10
2023-01-13T12:56:25.273Z,3.10
2023-01-13T12:58:52.161Z,2.80
2023-01-13T13:01:35.962Z,2.80
2023-01-13T13:04:15.329Z,2.77
2023-01-13T13:06:45.638Z,2.80
2023-01-13T13:09:42.958Z,2.53
2023-01-13T13:12:50.086Z,2.60
2023-01-13T13:15:25.449Z,2.90
2023-01-13T13:18:03.638Z,2.37
2023-01-13T13:21:05.156Z,2.33
2023-01-13T13:23:40.501Z,2.50
2023-01-13T13:26:16.794Z,2.60
2023-01-13T13:28:53.546Z,2.30
2023-01-13T13:31:38.186Z,2.60
2023-01-13T13:34:26.645Z,2.47
2023-01-13T13:37:05.008Z,2.23
2023-01-13T13:39:51.025Z,2.07
2023-01-13T13:42:46.379Z,2.23
2023-01-13T13:45:43.261Z,2.30
2023-01-13T13:48:22.911Z,2.50
2023-01-13T13:51:03.203Z,2.40
2023-01-13T13:53:41.240Z,2.27
2023-01-13T13:56:21.063Z,2.33
2023-01-13T13:58:49.784Z,2.00
2023-01-13T14:01:24.526Z,2.30
2023-01-13T14:04:20.072Z,2.53
2023-01-13T14:07:00.015Z,2.30
2023-01-13T14:09:29.325Z,2.43
2023-01-13T14:12:02.352Z,2.30
2023-01-13T14:14:29.456Z,2.60
2023-01-13T14:16:59.094Z,3.00
2023-01-13T14:19:33.068Z,2.47
2023-01-13T14:22:02.301Z,3.20
2023-01-13T14:24:30.781Z,3.50
2023-01-13T14:27:09.350Z,3.50
2023-01-13T14:29:37.539Z,2.57
2023-01-13T14:32:06.630Z,3.07
2023-01-13T14:34:34.725Z,3.00
2023-01-13T14:37:03.192Z,2.83
2023-01-13T14:39:41.630Z,2.60
2023-01-13T14:42:17.343Z,2.73
2023-01-13T14:44:47.529Z,2.87
2023-01-13T14:47:23.208Z,2.23
2023-01-13T14:50:12.167Z,2.67
2023-01-13T14:52:57.190Z,2.93
2023-01-13T14:55:29.837Z,2.33
2023-01-13T14:58:28.715Z,2.40
2023-01-13T15:01:26.631Z,2.13
2023-01-13T15:03:53.625Z,1.67
2023-01-13T15:06:25.895Z,2.20
2023-01-13T15:08:53.068Z,1.97
2023-01-13T15:11:28.999Z,2.37
2023-01-13T15:14:04.396Z,2.07
2023-01-13T15:16:34.586Z,2.37
2023-01-13T15:19:01.544Z,1.90
2023-01-13T15:21:28.548Z,1.90
2023-01-13T15:23:55.530Z,1.87
2023-01-13T15:26:28.487Z,1.77
2023-01-13T15:28:57.197Z,2.00
2023-01-13T15:31:25.233Z,1.80
2023-01-13T15:33:52.353Z,1.10
2023-01-13T15:36:20.982Z,1.17
2023-01-13T15:38:47.989Z,2.17
2023-01-13T15:41:14.774Z,1.67
2023-01-13T15:44:00.373Z,1.33
2023-01-13T15:46:39.556Z,1.20
2023-01-13T15:49:27.976Z,0.83
2023-01-13T15:51:54.809Z,0.80
2023-01-13T15:54:24.859Z,1.00
2023-01-13T15:56:52.520Z,0.80
2023-01-13T15:59:23.658Z,0.80
2023-01-13T16:01:50.546Z,0.97
2023-01-13T16:04:17.386Z,0.90
2023-01-13T16:06:44.691Z,1.20
2023-01-13T16:09:15.151Z,1.20
2023-01-13T16:11:42.178Z,1.20
2023-01-13T16:14:09.307Z,1.30
2023-01-13T16:16:36.205Z,1.10
2023-01-13T16:19:03.550Z,1.57
2023-01-13T16:21:30.629Z,3.00
2023-01-13T16:23:57.498Z,2.37
2023-01-13T16:26:27.072Z,2.43
2023-01-13T16:28:55.974Z,2.10
2023-01-13T16:31:31.068Z,1.50
2023-01-13T16:33:59.802Z,2.30
2023-01-13T16:36:27.742Z,2.77
2023-01-13T16:38:55.063Z,2.00
2023-01-13T16:41:22.826Z,1.87
2023-01-13T16:43:49.856Z,1.80
2023-01-13T16:46:29.413Z,2.17
2023-01-13T16:49:01.465Z,1.77
2023-01-13T16:51:28.608Z,1.80
2023-01-13T16:53:55.665Z,2.07
2023-01-13T16:56:31.430Z,2.00
2023-01-13T16:59:01.474Z,1.67
2023-01-13T17:01:31.363Z,1.40
2023-01-13T17:03:59.657Z,1.73
2023-01-13T17:06:43.456Z,3.00
2023-01-13T17:09:21.660Z,3.47
2023-01-13T17:11:51.716Z,3.23
2023-01-13T17:14:21.921Z,6.93
2023-01-13T17:16:49.795Z,3.00
2023-01-13T17:19:16.981Z,1.90
2023-01-13T17:21:44.082Z,2.37
2023-01-13T17:24:12.625Z,3.30
2023-01-13T17:26:49.411Z,3.47
2023-01-13T17:29:17.683Z,2.53
2023-01-13T17:31:45.099Z,2.67
2023-01-13T17:34:13.439Z,2.93
2023-01-13T17:36:42.922Z,3.20
2023-01-13T17:39:21.705Z,2.33
2023-01-13T17:41:48.728Z,2.80
2023-01-13T17:44:20.353Z,2.70
2023-01-13T17:46:47.941Z,2.03
2023-01-13T17:49:17.475Z,2.43
2023-01-13T17:51:48.525Z,2.50
2023-01-13T17:54:15.907Z,2.43
2023-01-13T17:56:42.823Z,1.77
2023-01-13T17:59:12.227Z,1.77
2023-01-13T18:01:39.345Z,2.43
2023-01-13T18:04:07.206Z,2.00
2023-01-13T18:06:34.245Z,1.70
2023-01-13T18:09:01.586Z,2.17
2023-01-13T18:11:28.723Z,1.90
2023-01-13T18:14:00.317Z,1.50
2023-01-13T18:16:30.223Z,1.23
2023-01-13T18:19:16.903Z,1.40
2023-01-13T18:22:02.826Z,1.47
2023-01-13T18:24:48.529Z,1.43
2023-01-13T18:27:20.067Z,1.87
2023-01-13T18:29:48.175Z,2.27
2023-01-13T18:32:15.934Z,2.13
2023-01-13T18:34:45.036Z,1.90
2023-01-13T18:37:14.818Z,2.60
2023-01-13T18:39:42.208Z,2.87
2023-01-13T18:42:29.656Z,2.70
2023-01-13T18:44:58.062Z,16.93
2023-01-13T18:47:26.584Z,6.23
2023-01-13T18:49:53.530Z,10.47
2023-01-13T18:52:20.698Z,17.60
2023-01-13T18:54:47.880Z,12.63
2023-01-13T18:57:16.567Z,38.53
2023-01-13T18:59:43.835Z,26.00
2023-01-13T19:02:17.095Z,2.70
2023-01-13T19:04:44.159Z,2.20
2023-01-13T19:07:22.390Z,2.40
2023-01-13T19:09:52.766Z,5.87
2023-01-13T19:12:31.158Z,2.53
2023-01-13T19:14:59.236Z,2.53
2023-01-13T19:17:30.985Z,3.20
2023-01-13T19:19:59.401Z,2.20
2023-01-13T19:22:35.766Z,12.07
2023-01-13T19:25:04.342Z,3.43
2023-01-13T19:27:31.441Z,3.60
2023-01-13T19:30:00.712Z,2.60
2023-01-13T19:32:28.797Z,6.50
2023-01-13T19:34:59.345Z,2.87
2023-01-13T19:37:30.572Z,7.47
2023-01-13T19:39:59.420Z,4.20
2023-01-13T19:42:45.291Z,2.70
2023-01-13T19:45:27.961Z,4.00
2023-01-13T19:47:58.035Z,3.70
2023-01-13T19:50:25.525Z,2.50
2023-01-13T19:52:52.608Z,2.17
2023-01-13T19:55:19.991Z,2.63
2023-01-13T19:57:47.357Z,2.20
2023-01-13T20:00:18.600Z,1.80
2023-01-13T20:02:49.607Z,2.20
2023-01-13T20:05:21.550Z,2.10
2023-01-13T20:07:50.294Z,1.60
2023-01-13T20:10:19.593Z,2.20
2023-01-13T20:12:46.514Z,2.00
2023-01-13T20:15:13.982Z,2.30
2023-01-13T20:17:41.784Z,2.70
2023-01-13T20:20:10.144Z,2.67
2023-01-13T20:22:41.016Z,2.83
2023-01-13T20:25:09.030Z,2.93
2023-01-13T20:27:36.944Z,3.23
2023-01-13T20:30:06.574Z,3.43
2023-01-13T20:32:33.472Z,2.27
2023-01-13T20:35:00.405Z,2.10
2023-01-13T20:37:27.662Z,1.90
2023-01-13T20:39:55.519Z,2.30
2023-01-13T20:42:32.694Z,2.00
2023-01-13T20:45:00.562Z,1.90
2023-01-13T20:47:28.905Z,2.10
2023-01-13T20:49:55.836Z,2.37
2023-01-13T20:52:23.385Z,2.87
2023-01-13T20:54:50.476Z,2.10
2023-01-13T20:57:17.437Z,2.00
2023-01-13T20:59:44.441Z,2.60
2023-01-13T21:02:13.716Z,1.40
2023-01-13T21:04:41.269Z,1.70
2023-01-13T21:07:08.586Z,1.87
2023-01-13T21:09:35.868Z,2.10
2023-01-13T21:12:21.541Z,1.90
2023-01-13T21:15:07.187Z,1.87
2023-01-13T21:17:52.628Z,1.97
2023-01-13T21:20:21.559Z,2.03
2023-01-13T21:22:49.662Z,1.70
2023-01-13T21:25:18.838Z,1.93
2023-01-13T21:27:45.605Z,2.50
2023-01-13T21:30:17.199Z,2.50
2023-01-13T21:32:48.034Z,2.67
2023-01-13T21:35:15.339Z,2.00
2023-01-13T21:37:44.427Z,2.67
2023-01-13T21:40:14.063Z,2.67
2023-01-13T21:42:59.383Z,2.17
2023-01-13T21:45:45.035Z,2.37
2023-01-13T21:48:12.137Z,2.57
2023-01-13T21:50:39.410Z,2.57
2023-01-13T21:53:08.231Z,2.70
2023-01-13T21:55:37.023Z,2.90
2023-01-13T21:58:13.238Z,2.47
2023-01-13T22:00:42.346Z,2.17
2023-01-13T22:03:10.281Z,2.70
2023-01-13T22:05:37.166Z,2.50
2023-01-13T22:08:04.659Z,2.23
2023-01-13T22:10:31.831Z,2.37
2023-01-13T22:13:21.494Z,2.63
2023-01-13T22:15:48.676Z,2.47
2023-01-13T22:18:17.924Z,2.13
2023-01-13T22:20:45.246Z,2.70
2023-01-13T22:23:12.116Z,3.17
2023-01-13T22:25:39.066Z,3.27
2023-01-13T22:28:06.273Z,2.50
2023-01-13T22:30:33.963Z,3.03
2023-01-13T22:33:01.901Z,2.93
2023-01-13T22:35:28.853Z,3.27
2023-01-13T22:37:55.947Z,3.10
2023-01-13T22:40:22.965Z,3.57
2023-01-13T22:42:50.025Z,2.53
2023-01-13T22:45:16.857Z,2.70
2023-01-13T22:47:43.820Z,2.30
2023-01-13T22:50:12.772Z,3.50
2023-01-13T22:52:39.778Z,3.00
2023-01-13T22:55:07.300Z,2.90
2023-01-13T22:57:46.660Z,1.70
2023-01-13T23:00:16.245Z,2.03
2023-01-13T23:02:43.193Z,2.13
2023-01-13T23:05:10.303Z,2.90
2023-01-13T23:07:37.412Z,2.60
2023-01-13T23:10:04.869Z,2.57
2023-01-13T23:12:31.789Z,3.00
2023-01-13T23:14:58.980Z,2.37
2023-01-13T23:17:25.785Z,2.80
2023-01-13T23:19:52.864Z,2.30
2023-01-13T23:22:19.752Z,2.83
2023-01-13T23:24:46.623Z,2.07
2023-01-13T23:27:13.810Z,2.27
2023-01-13T23:29:40.711Z,2.50
2023-01-13T23:32:07.611Z,2.83
2023-01-13T23:34:34.460Z,2.33
2023-01-13T23:37:02.756Z,2.67
2023-01-13T23:39:29.577Z,2.90
2023-01-13T23:41:56.402Z,2.30
2023-01-13T23:44:23.416Z,2.77
2023-01-13T23:46:50.248Z,2.57
2023-01-13T23:49:17.171Z,2.50
2023-01-13T23:51:43.983Z,2.70
2023-01-13T23:54:10.944Z,2.90
2023-01-13T23:56:39.824Z,2.07
2023-01-13T23:59:07.458Z,2.63
